KCVG/CVG METAR and TAF weather

Enter ICAO airport designator
Station Type Date Time Source
KCVG METAR 2019/02/23 01:52 UTC NOAA

KCVG 230152Z 06010KT 8SM BKN075 OVC090 05/M01 A3029 RMK AO2 SLP260 T00501006


Station Type Date Time Source
KCVG Decoded METAR 2019/02/23 01:52 UTC NOAA

CINCINNATI/NORTHERN KY INTERNATIONAL , KY, United States (KCVG) 39-03N 084-40W 269M
Feb 22, 2019 - 08:52 PM EST / 2019.02.23 0152 UTC
Wind: from the ENE (060 degrees) at 12 MPH (10 KT):0
Visibility: 8 mile(s):0
Sky conditions: overcast
Temperature: 41.0 F (5.0 C)
Dew Point: 30.9 F (-0.6 C)
Relative Humidity: 67%
Pressure (altimeter): 30.29 in. Hg (1025 hPa)
ob: KCVG 230152Z 06010KT 8SM BKN075 OVC090 05/M01 A3029 RMK AO2 SLP260 T00501006
cycle: 2

Station Type Date Time Source
KCVG TAF 2019/02/22 21:58 UTC NOAA

TAF
AMD KCVG 222056Z 2221/2324 07009KT P6SM SCT080 OVC150
FM230800 08008KT P6SM OVC050
FM231000 09010KT P6SM VCSH OVC025
FM231500 13010KT 5SM -SHRA OVC015
TEMPO 2316/2318 2SM -SHRA BR OVC009
FM231900 16010G20KT P6SM VCSH OVC013 WS020/20040KT


Example: see airport list